sensor_id;sensor_type;location;lat;lon;timestamp;P1;durP1;ratioP1;P2;durP2;ratioP2
56381;SDS011;50261;51.150;4.470;2022-10-19T00:02:25;11.40;;;3.20;;
56381;SDS011;50261;51.150;4.470;2022-10-19T00:04:51;12.35;;;3.72;;
56381;SDS011;50261;51.150;4.470;2022-10-19T00:07:16;9.00;;;3.60;;
56381;SDS011;50261;51.150;4.470;2022-10-19T00:09:43;17.75;;;3.80;;
56381;SDS011;50261;51.150;4.470;2022-10-19T00:12:08;14.73;;;3.25;;
56381;SDS011;50261;51.150;4.470;2022-10-19T00:14:34;9.85;;;3.38;;
56381;SDS011;50261;51.150;4.470;2022-10-19T00:17:00;9.82;;;3.33;;
56381;SDS011;50261;51.150;4.470;2022-10-19T00:19:26;16.65;;;4.03;;
56381;SDS011;50261;51.150;4.470;2022-10-19T00:21:53;19.73;;;3.97;;
56381;SDS011;50261;51.150;4.470;2022-10-19T00:24:19;12.32;;;3.05;;
56381;SDS011;50261;51.150;4.470;2022-10-19T00:26:44;14.35;;;3.65;;
56381;SDS011;50261;51.150;4.470;2022-10-19T00:29:11;15.23;;;3.72;;
56381;SDS011;50261;51.150;4.470;2022-10-19T00:31:38;12.65;;;3.50;;
56381;SDS011;50261;51.150;4.470;2022-10-19T00:34:03;11.63;;;3.45;;
56381;SDS011;50261;51.150;4.470;2022-10-19T00:36:33;15.05;;;4.07;;
56381;SDS011;50261;51.150;4.470;2022-10-19T00:38:59;10.20;;;3.20;;
56381;SDS011;50261;51.150;4.470;2022-10-19T00:41:27;9.40;;;3.60;;
56381;SDS011;50261;51.150;4.470;2022-10-19T00:46:25;12.18;;;3.50;;
56381;SDS011;50261;51.150;4.470;2022-10-19T00:48:52;18.23;;;3.85;;
56381;SDS011;50261;51.150;4.470;2022-10-19T00:51:18;13.82;;;3.38;;
56381;SDS011;50261;51.150;4.470;2022-10-19T00:53:44;10.77;;;3.60;;
56381;SDS011;50261;51.150;4.470;2022-10-19T00:56:12;14.18;;;3.95;;
56381;SDS011;50261;51.150;4.470;2022-10-19T00:58:38;10.35;;;3.58;;
56381;SDS011;50261;51.150;4.470;2022-10-19T01:01:05;15.48;;;4.03;;
56381;SDS011;50261;51.150;4.470;2022-10-19T01:03:33;10.18;;;3.35;;
56381;SDS011;50261;51.150;4.470;2022-10-19T01:05:59;13.02;;;3.75;;
56381;SDS011;50261;51.150;4.470;2022-10-19T01:08:25;12.57;;;4.30;;
56381;SDS011;50261;51.150;4.470;2022-10-19T01:11:06;13.20;;;3.75;;
56381;SDS011;50261;51.150;4.470;2022-10-19T01:21:18;13.57;;;4.03;;
56381;SDS011;50261;51.150;4.470;2022-10-19T01:33:53;9.77;;;3.92;;
56381;SDS011;50261;51.150;4.470;2022-10-19T01:36:22;13.93;;;4.40;;
56381;SDS011;50261;51.150;4.470;2022-10-19T01:39:07;11.15;;;4.68;;
56381;SDS011;50261;51.150;4.470;2022-10-19T01:41:44;13.30;;;4.55;;
56381;SDS011;50261;51.150;4.470;2022-10-19T01:46:38;12.43;;;4.65;;
56381;SDS011;50261;51.150;4.470;2022-10-19T01:49:09;14.75;;;4.72;;
56381;SDS011;50261;51.150;4.470;2022-10-19T01:51:36;8.27;;;3.70;;
56381;SDS011;50261;51.150;4.470;2022-10-19T01:54:05;11.80;;;3.92;;
56381;SDS011;50261;51.150;4.470;2022-10-19T01:56:32;13.25;;;3.97;;
56381;SDS011;50261;51.150;4.470;2022-10-19T01:58:59;12.35;;;3.45;;
56381;SDS011;50261;51.150;4.470;2022-10-19T02:01:29;14.70;;;3.75;;
56381;SDS011;50261;51.150;4.470;2022-10-19T02:03:55;8.45;;;3.38;;
56381;SDS011;50261;51.150;4.470;2022-10-19T02:06:22;9.95;;;2.90;;
56381;SDS011;50261;51.150;4.470;2022-10-19T02:08:49;12.55;;;3.38;;
56381;SDS011;50261;51.150;4.470;2022-10-19T02:11:15;12.32;;;3.13;;
56381;SDS011;50261;51.150;4.470;2022-10-19T02:13:41;12.98;;;3.42;;
56381;SDS011;50261;51.150;4.470;2022-10-19T02:16:11;9.32;;;3.33;;
56381;SDS011;50261;51.150;4.470;2022-10-19T02:18:39;11.50;;;3.80;;
56381;SDS011;50261;51.150;4.470;2022-10-19T02:21:06;11.73;;;3.65;;
56381;SDS011;50261;51.150;4.470;2022-10-19T02:23:33;11.25;;;3.15;;
56381;SDS011;50261;51.150;4.470;2022-10-19T02:25:59;12.35;;;3.78;;
56381;SDS011;50261;51.150;4.470;2022-10-19T02:28:25;11.88;;;4.60;;
56381;SDS011;50261;51.150;4.470;2022-10-19T02:30:51;11.75;;;4.03;;
56381;SDS011;50261;51.150;4.470;2022-10-19T02:33:17;10.48;;;3.72;;
56381;SDS011;50261;51.150;4.470;2022-10-19T02:35:42;11.82;;;3.75;;
56381;SDS011;50261;51.150;4.470;2022-10-19T02:38:09;11.35;;;4.15;;
56381;SDS011;50261;51.150;4.470;2022-10-19T02:40:37;12.95;;;4.20;;
56381;SDS011;50261;51.150;4.470;2022-10-19T02:43:04;14.88;;;4.15;;
56381;SDS011;50261;51.150;4.470;2022-10-19T02:45:34;13.48;;;5.13;;
56381;SDS011;50261;51.150;4.470;2022-10-19T02:48:03;15.45;;;4.78;;
56381;SDS011;50261;51.150;4.470;2022-10-19T02:50:30;13.82;;;4.40;;
56381;SDS011;50261;51.150;4.470;2022-10-19T02:52:59;13.18;;;5.45;;
56381;SDS011;50261;51.150;4.470;2022-10-19T02:55:24;11.40;;;4.60;;
56381;SDS011;50261;51.150;4.470;2022-10-19T02:57:50;11.48;;;4.00;;
56381;SDS011;50261;51.150;4.470;2022-10-19T03:00:16;15.25;;;4.65;;
56381;SDS011;50261;51.150;4.470;2022-10-19T03:02:41;11.65;;;4.60;;
56381;SDS011;50261;51.150;4.470;2022-10-19T03:05:08;12.77;;;4.25;;
56381;SDS011;50261;51.150;4.470;2022-10-19T03:07:33;13.40;;;4.10;;
56381;SDS011;50261;51.150;4.470;2022-10-19T03:09:59;13.35;;;3.55;;
56381;SDS011;50261;51.150;4.470;2022-10-19T03:12:25;11.43;;;4.43;;
56381;SDS011;50261;51.150;4.470;2022-10-19T03:14:50;13.77;;;3.97;;
56381;SDS011;50261;51.150;4.470;2022-10-19T03:17:16;13.85;;;4.28;;
56381;SDS011;50261;51.150;4.470;2022-10-19T03:19:41;13.77;;;4.18;;
56381;SDS011;50261;51.150;4.470;2022-10-19T03:22:07;9.85;;;3.65;;
56381;SDS011;50261;51.150;4.470;2022-10-19T03:24:33;13.77;;;4.32;;
56381;SDS011;50261;51.150;4.470;2022-10-19T03:26:59;11.60;;;3.90;;
56381;SDS011;50261;51.150;4.470;2022-10-19T03:29:24;10.95;;;3.80;;
56381;SDS011;50261;51.150;4.470;2022-10-19T03:31:50;10.70;;;4.55;;
56381;SDS011;50261;51.150;4.470;2022-10-19T03:34:16;17.52;;;4.35;;
56381;SDS011;50261;51.150;4.470;2022-10-19T03:36:41;15.27;;;4.07;;
56381;SDS011;50261;51.150;4.470;2022-10-19T03:39:09;15.15;;;4.13;;
56381;SDS011;50261;51.150;4.470;2022-10-19T03:41:36;12.65;;;4.28;;
56381;SDS011;50261;51.150;4.470;2022-10-19T03:44:02;15.73;;;4.03;;
56381;SDS011;50261;51.150;4.470;2022-10-19T03:46:28;16.90;;;3.72;;
56381;SDS011;50261;51.150;4.470;2022-10-19T03:48:54;10.25;;;4.15;;
56381;SDS011;50261;51.150;4.470;2022-10-19T03:51:21;14.23;;;4.30;;
56381;SDS011;50261;51.150;4.470;2022-10-19T03:53:47;14.90;;;5.40;;
56381;SDS011;50261;51.150;4.470;2022-10-19T03:56:16;11.05;;;4.15;;
56381;SDS011;50261;51.150;4.470;2022-10-19T03:58:43;11.23;;;4.72;;
56381;SDS011;50261;51.150;4.470;2022-10-19T04:01:13;13.05;;;4.72;;
56381;SDS011;50261;51.150;4.470;2022-10-19T04:03:39;18.55;;;4.88;;
56381;SDS011;50261;51.150;4.470;2022-10-19T04:06:05;12.68;;;4.85;;
56381;SDS011;50261;51.150;4.470;2022-10-19T04:08:31;10.82;;;4.50;;
56381;SDS011;50261;51.150;4.470;2022-10-19T04:10:58;10.30;;;4.15;;
56381;SDS011;50261;51.150;4.470;2022-10-19T04:13:24;14.55;;;4.05;;
56381;SDS011;50261;51.150;4.470;2022-10-19T04:15:49;15.85;;;4.72;;
56381;SDS011;50261;51.150;4.470;2022-10-19T04:18:15;13.40;;;4.35;;
56381;SDS011;50261;51.150;4.470;2022-10-19T04:20:41;11.05;;;4.10;;
56381;SDS011;50261;51.150;4.470;2022-10-19T04:23:08;9.95;;;4.15;;
56381;SDS011;50261;51.150;4.470;2022-10-19T04:25:33;17.73;;;4.32;;
56381;SDS011;50261;51.150;4.470;2022-10-19T04:27:59;12.88;;;4.38;;
56381;SDS011;50261;51.150;4.470;2022-10-19T04:30:25;18.35;;;4.60;;
56381;SDS011;50261;51.150;4.470;2022-10-19T04:32:50;11.57;;;4.35;;
56381;SDS011;50261;51.150;4.470;2022-10-19T04:35:16;13.02;;;4.40;;
56381;SDS011;50261;51.150;4.470;2022-10-19T04:37:42;13.25;;;4.47;;
56381;SDS011;50261;51.150;4.470;2022-10-19T04:40:08;12.52;;;3.90;;
56381;SDS011;50261;51.150;4.470;2022-10-19T04:42:34;10.70;;;4.28;;
56381;SDS011;50261;51.150;4.470;2022-10-19T04:44:59;8.13;;;4.15;;
56381;SDS011;50261;51.150;4.470;2022-10-19T04:47:25;16.92;;;4.30;;
56381;SDS011;50261;51.150;4.470;2022-10-19T04:49:51;9.85;;;4.53;;
56381;SDS011;50261;51.150;4.470;2022-10-19T04:52:16;10.38;;;4.30;;
56381;SDS011;50261;51.150;4.470;2022-10-19T04:54:42;12.05;;;4.35;;
56381;SDS011;50261;51.150;4.470;2022-10-19T04:57:08;13.38;;;5.38;;
56381;SDS011;50261;51.150;4.470;2022-10-19T04:59:33;13.40;;;4.35;;
56381;SDS011;50261;51.150;4.470;2022-10-19T05:01:59;11.88;;;4.55;;
56381;SDS011;50261;51.150;4.470;2022-10-19T05:04:24;13.32;;;4.88;;
56381;SDS011;50261;51.150;4.470;2022-10-19T05:06:50;10.45;;;4.32;;
56381;SDS011;50261;51.150;4.470;2022-10-19T05:09:16;12.13;;;4.57;;
56381;SDS011;50261;51.150;4.470;2022-10-19T05:11:41;10.32;;;4.22;;
56381;SDS011;50261;51.150;4.470;2022-10-19T05:14:07;20.00;;;4.95;;
56381;SDS011;50261;51.150;4.470;2022-10-19T05:16:33;13.48;;;4.60;;
56381;SDS011;50261;51.150;4.470;2022-10-19T05:18:58;13.07;;;4.80;;
56381;SDS011;50261;51.150;4.470;2022-10-19T05:21:25;16.08;;;4.97;;
56381;SDS011;50261;51.150;4.470;2022-10-19T05:23:52;13.00;;;4.60;;
56381;SDS011;50261;51.150;4.470;2022-10-19T05:26:19;17.10;;;4.90;;
56381;SDS011;50261;51.150;4.470;2022-10-19T05:28:48;15.80;;;4.88;;
56381;SDS011;50261;51.150;4.470;2022-10-19T05:31:16;8.73;;;4.10;;
56381;SDS011;50261;51.150;4.470;2022-10-19T05:33:42;11.00;;;5.07;;
56381;SDS011;50261;51.150;4.470;2022-10-19T05:36:29;12.88;;;5.00;;
56381;SDS011;50261;51.150;4.470;2022-10-19T05:38:55;16.65;;;4.80;;
56381;SDS011;50261;51.150;4.470;2022-10-19T05:41:20;11.82;;;5.32;;
56381;SDS011;50261;51.150;4.470;2022-10-19T05:43:50;10.93;;;5.35;;
56381;SDS011;50261;51.150;4.470;2022-10-19T05:46:16;13.88;;;5.85;;
56381;SDS011;50261;51.150;4.470;2022-10-19T05:48:42;13.27;;;5.28;;
56381;SDS011;50261;51.150;4.470;2022-10-19T05:51:09;11.00;;;5.65;;
56381;SDS011;50261;51.150;4.470;2022-10-19T05:53:36;13.30;;;5.80;;
56381;SDS011;50261;51.150;4.470;2022-10-19T05:56:05;15.40;;;6.03;;
56381;SDS011;50261;51.150;4.470;2022-10-19T05:58:31;13.07;;;5.85;;
56381;SDS011;50261;51.150;4.470;2022-10-19T06:00:57;21.02;;;6.22;;
56381;SDS011;50261;51.150;4.470;2022-10-19T06:03:23;15.93;;;6.78;;
56381;SDS011;50261;51.150;4.470;2022-10-19T06:05:49;19.35;;;7.25;;
56381;SDS011;50261;51.150;4.470;2022-10-19T06:08:15;14.75;;;6.55;;
56381;SDS011;50261;51.150;4.470;2022-10-19T06:10:40;17.92;;;6.65;;
56381;SDS011;50261;51.150;4.470;2022-10-19T06:13:06;13.75;;;6.25;;
56381;SDS011;50261;51.150;4.470;2022-10-19T06:15:32;13.20;;;6.28;;
56381;SDS011;50261;51.150;4.470;2022-10-19T06:17:57;17.58;;;7.00;;
56381;SDS011;50261;51.150;4.470;2022-10-19T06:20:23;13.10;;;7.00;;
56381;SDS011;50261;51.150;4.470;2022-10-19T06:22:51;15.85;;;7.18;;
56381;SDS011;50261;51.150;4.470;2022-10-19T06:25:16;16.77;;;8.13;;
56381;SDS011;50261;51.150;4.470;2022-10-19T06:27:42;15.52;;;7.47;;
56381;SDS011;50261;51.150;4.470;2022-10-19T06:30:07;18.40;;;7.60;;
56381;SDS011;50261;51.150;4.470;2022-10-19T06:32:33;22.35;;;7.75;;
56381;SDS011;50261;51.150;4.470;2022-10-19T06:34:58;18.67;;;8.18;;
56381;SDS011;50261;51.150;4.470;2022-10-19T06:37:24;19.08;;;7.82;;
56381;SDS011;50261;51.150;4.470;2022-10-19T06:39:49;15.75;;;7.60;;
56381;SDS011;50261;51.150;4.470;2022-10-19T06:42:15;16.45;;;7.88;;
56381;SDS011;50261;51.150;4.470;2022-10-19T06:44:41;19.08;;;8.85;;
56381;SDS011;50261;51.150;4.470;2022-10-19T06:47:06;15.50;;;8.20;;
56381;SDS011;50261;51.150;4.470;2022-10-19T06:49:32;14.52;;;7.85;;
56381;SDS011;50261;51.150;4.470;2022-10-19T06:52:00;17.80;;;8.45;;
56381;SDS011;50261;51.150;4.470;2022-10-19T06:54:26;19.90;;;8.77;;
56381;SDS011;50261;51.150;4.470;2022-10-19T06:56:52;15.25;;;7.75;;
56381;SDS011;50261;51.150;4.470;2022-10-19T06:59:17;18.63;;;8.98;;
56381;SDS011;50261;51.150;4.470;2022-10-19T07:01:43;15.65;;;8.18;;
56381;SDS011;50261;51.150;4.470;2022-10-19T07:04:09;20.80;;;7.90;;
56381;SDS011;50261;51.150;4.470;2022-10-19T07:06:35;18.38;;;7.45;;
56381;SDS011;50261;51.150;4.470;2022-10-19T07:09:00;14.68;;;8.05;;
56381;SDS011;50261;51.150;4.470;2022-10-19T07:11:27;19.40;;;8.25;;
56381;SDS011;50261;51.150;4.470;2022-10-19T07:13:52;14.40;;;7.43;;
56381;SDS011;50261;51.150;4.470;2022-10-19T07:16:18;20.05;;;8.07;;
56381;SDS011;50261;51.150;4.470;2022-10-19T07:18:44;16.98;;;7.85;;
56381;SDS011;50261;51.150;4.470;2022-10-19T07:21:11;21.85;;;8.48;;
56381;SDS011;50261;51.150;4.470;2022-10-19T07:23:38;16.35;;;7.90;;
56381;SDS011;50261;51.150;4.470;2022-10-19T07:26:05;18.67;;;8.00;;
56381;SDS011;50261;51.150;4.470;2022-10-19T07:28:31;13.60;;;6.82;;
56381;SDS011;50261;51.150;4.470;2022-10-19T07:30:57;19.83;;;8.15;;
56381;SDS011;50261;51.150;4.470;2022-10-19T07:33:22;19.60;;;8.30;;
56381;SDS011;50261;51.150;4.470;2022-10-19T07:35:48;16.95;;;7.38;;
56381;SDS011;50261;51.150;4.470;2022-10-19T07:38:14;13.93;;;7.45;;
56381;SDS011;50261;51.150;4.470;2022-10-19T07:40:39;20.80;;;7.95;;
56381;SDS011;50261;51.150;4.470;2022-10-19T07:43:05;18.73;;;7.50;;
56381;SDS011;50261;51.150;4.470;2022-10-19T07:45:31;15.98;;;6.97;;
56381;SDS011;50261;51.150;4.470;2022-10-19T07:47:57;16.55;;;6.97;;
56381;SDS011;50261;51.150;4.470;2022-10-19T07:50:23;15.57;;;7.32;;
56381;SDS011;50261;51.150;4.470;2022-10-19T07:52:52;13.23;;;6.50;;
56381;SDS011;50261;51.150;4.470;2022-10-19T07:55:18;18.38;;;6.75;;
56381;SDS011;50261;51.150;4.470;2022-10-19T07:57:48;18.83;;;7.82;;
56381;SDS011;50261;51.150;4.470;2022-10-19T08:00:14;17.88;;;6.30;;
56381;SDS011;50261;51.150;4.470;2022-10-19T08:02:40;13.27;;;6.10;;
56381;SDS011;50261;51.150;4.470;2022-10-19T08:05:06;12.82;;;6.32;;
56381;SDS011;50261;51.150;4.470;2022-10-19T08:07:32;12.20;;;5.53;;
56381;SDS011;50261;51.150;4.470;2022-10-19T08:09:58;13.73;;;5.55;;
56381;SDS011;50261;51.150;4.470;2022-10-19T08:12:24;12.48;;;5.85;;
56381;SDS011;50261;51.150;4.470;2022-10-19T08:14:49;13.77;;;5.53;;
56381;SDS011;50261;51.150;4.470;2022-10-19T08:17:15;12.55;;;5.65;;
56381;SDS011;50261;51.150;4.470;2022-10-19T08:19:42;15.40;;;5.43;;
56381;SDS011;50261;51.150;4.470;2022-10-19T08:22:08;12.48;;;5.13;;
56381;SDS011;50261;51.150;4.470;2022-10-19T08:24:34;12.52;;;5.97;;
56381;SDS011;50261;51.150;4.470;2022-10-19T08:27:00;12.85;;;5.25;;
56381;SDS011;50261;51.150;4.470;2022-10-19T08:29:26;13.98;;;5.15;;
56381;SDS011;50261;51.150;4.470;2022-10-19T08:31:52;17.50;;;5.60;;
56381;SDS011;50261;51.150;4.470;2022-10-19T08:34:18;11.20;;;4.82;;
56381;SDS011;50261;51.150;4.470;2022-10-19T08:36:44;11.80;;;5.22;;
56381;SDS011;50261;51.150;4.470;2022-10-19T08:39:10;16.85;;;4.88;;
56381;SDS011;50261;51.150;4.470;2022-10-19T08:41:45;14.55;;;4.93;;
56381;SDS011;50261;51.150;4.470;2022-10-19T08:44:22;14.55;;;5.35;;
56381;SDS011;50261;51.150;4.470;2022-10-19T08:49:31;15.82;;;5.15;;
56381;SDS011;50261;51.150;4.470;2022-10-19T08:51:57;16.35;;;6.03;;
56381;SDS011;50261;51.150;4.470;2022-10-19T08:54:27;13.30;;;5.00;;
56381;SDS011;50261;51.150;4.470;2022-10-19T08:59:44;10.55;;;5.07;;
56381;SDS011;50261;51.150;4.470;2022-10-19T09:05:00;15.32;;;4.88;;
56381;SDS011;50261;51.150;4.470;2022-10-19T09:07:28;15.88;;;5.97;;
56381;SDS011;50261;51.150;4.470;2022-10-19T09:10:00;12.60;;;4.47;;
56381;SDS011;50261;51.150;4.470;2022-10-19T09:12:39;13.35;;;5.00;;
56381;SDS011;50261;51.150;4.470;2022-10-19T09:15:09;15.68;;;5.45;;
56381;SDS011;50261;51.150;4.470;2022-10-19T09:17:35;14.75;;;4.90;;
56381;SDS011;50261;51.150;4.470;2022-10-19T09:20:16;14.20;;;4.90;;
56381;SDS011;50261;51.150;4.470;2022-10-19T09:22:42;19.60;;;5.07;;
56381;SDS011;50261;51.150;4.470;2022-10-19T09:25:13;12.70;;;5.05;;
56381;SDS011;50261;51.150;4.470;2022-10-19T09:27:39;11.43;;;4.90;;
56381;SDS011;50261;51.150;4.470;2022-10-19T09:30:16;15.07;;;5.43;;
56381;SDS011;50261;51.150;4.470;2022-10-19T09:32:42;16.02;;;5.15;;
56381;SDS011;50261;51.150;4.470;2022-10-19T09:38:09;12.57;;;4.45;;
56381;SDS011;50261;51.150;4.470;2022-10-19T09:40:36;8.90;;;4.57;;
56381;SDS011;50261;51.150;4.470;2022-10-19T09:43:04;12.45;;;4.97;;
56381;SDS011;50261;51.150;4.470;2022-10-19T09:48:43;13.43;;;4.90;;
56381;SDS011;50261;51.150;4.470;2022-10-19T09:51:11;15.43;;;4.50;;
56381;SDS011;50261;51.150;4.470;2022-10-19T09:53:37;12.93;;;4.90;;
56381;SDS011;50261;51.150;4.470;2022-10-19T09:56:08;14.45;;;4.40;;
56381;SDS011;50261;51.150;4.470;2022-10-19T09:58:46;13.65;;;4.65;;
56381;SDS011;50261;51.150;4.470;2022-10-19T10:01:27;16.08;;;4.88;;
56381;SDS011;50261;51.150;4.470;2022-10-19T10:03:56;16.02;;;4.57;;
56381;SDS011;50261;51.150;4.470;2022-10-19T10:06:28;15.40;;;4.55;;
56381;SDS011;50261;51.150;4.470;2022-10-19T10:08:54;15.57;;;4.13;;
56381;SDS011;50261;51.150;4.470;2022-10-19T10:11:24;12.40;;;4.18;;
56381;SDS011;50261;51.150;4.470;2022-10-19T10:13:51;10.05;;;3.50;;
56381;SDS011;50261;51.150;4.470;2022-10-19T10:16:19;8.27;;;3.22;;
56381;SDS011;50261;51.150;4.470;2022-10-19T10:21:30;6.63;;;3.20;;
56381;SDS011;50261;51.150;4.470;2022-10-19T10:24:04;11.75;;;3.30;;
56381;SDS011;50261;51.150;4.470;2022-10-19T10:28:55;11.15;;;3.20;;
56381;SDS011;50261;51.150;4.470;2022-10-19T10:31:22;7.30;;;3.05;;
56381;SDS011;50261;51.150;4.470;2022-10-19T10:33:53;13.13;;;4.00;;
56381;SDS011;50261;51.150;4.470;2022-10-19T10:36:22;10.10;;;3.20;;
56381;SDS011;50261;51.150;4.470;2022-10-19T10:38:52;11.25;;;3.45;;
56381;SDS011;50261;51.150;4.470;2022-10-19T10:41:19;10.27;;;3.72;;
56381;SDS011;50261;51.150;4.470;2022-10-19T10:44:00;8.63;;;3.20;;
56381;SDS011;50261;51.150;4.470;2022-10-19T10:46:31;12.27;;;3.50;;
56381;SDS011;50261;51.150;4.470;2022-10-19T10:49:02;11.80;;;3.72;;
56381;SDS011;50261;51.150;4.470;2022-10-19T10:54:05;11.10;;;3.33;;
56381;SDS011;50261;51.150;4.470;2022-10-19T10:56:31;12.20;;;3.88;;
56381;SDS011;50261;51.150;4.470;2022-10-19T10:58:59;8.98;;;3.33;;
56381;SDS011;50261;51.150;4.470;2022-10-19T11:01:28;12.32;;;3.63;;
56381;SDS011;50261;51.150;4.470;2022-10-19T11:04:13;11.07;;;3.53;;
56381;SDS011;50261;51.150;4.470;2022-10-19T11:06:41;12.20;;;3.88;;
56381;SDS011;50261;51.150;4.470;2022-10-19T11:09:17;11.52;;;3.40;;
56381;SDS011;50261;51.150;4.470;2022-10-19T11:11:45;11.57;;;3.45;;
56381;SDS011;50261;51.150;4.470;2022-10-19T11:14:25;10.43;;;3.28;;
56381;SDS011;50261;51.150;4.470;2022-10-19T11:16:53;6.15;;;3.83;;
56381;SDS011;50261;51.150;4.470;2022-10-19T11:19:31;7.15;;;3.25;;
56381;SDS011;50261;51.150;4.470;2022-10-19T11:24:34;11.75;;;3.92;;
56381;SDS011;50261;51.150;4.470;2022-10-19T11:27:13;8.63;;;3.58;;
56381;SDS011;50261;51.150;4.470;2022-10-19T11:29:47;10.50;;;4.03;;
56381;SDS011;50261;51.150;4.470;2022-10-19T11:34:48;9.45;;;4.15;;
56381;SDS011;50261;51.150;4.470;2022-10-19T11:37:27;11.13;;;4.13;;
56381;SDS011;50261;51.150;4.470;2022-10-19T11:39:58;9.00;;;3.58;;
56381;SDS011;50261;51.150;4.470;2022-10-19T11:42:39;9.50;;;3.88;;
56381;SDS011;50261;51.150;4.470;2022-10-19T11:45:17;12.52;;;3.97;;
56381;SDS011;50261;51.150;4.470;2022-10-19T11:57:54;6.95;;;3.95;;
56381;SDS011;50261;51.150;4.470;2022-10-19T12:00:22;13.05;;;4.95;;
56381;SDS011;50261;51.150;4.470;2022-10-19T12:05:16;9.82;;;4.03;;
56381;SDS011;50261;51.150;4.470;2022-10-19T12:12:39;11.63;;;4.47;;
56381;SDS011;50261;51.150;4.470;2022-10-19T12:17:35;10.38;;;4.20;;
56381;SDS011;50261;51.150;4.470;2022-10-19T12:20:04;8.55;;;4.85;;
56381;SDS011;50261;51.150;4.470;2022-10-19T12:22:32;13.68;;;4.72;;
56381;SDS011;50261;51.150;4.470;2022-10-19T12:24:59;11.88;;;5.28;;
56381;SDS011;50261;51.150;4.470;2022-10-19T12:27:33;13.10;;;4.55;;
56381;SDS011;50261;51.150;4.470;2022-10-19T12:30:06;9.52;;;4.40;;
56381;SDS011;50261;51.150;4.470;2022-10-19T12:32:35;11.50;;;4.60;;
56381;SDS011;50261;51.150;4.470;2022-10-19T12:35:16;11.57;;;4.63;;
56381;SDS011;50261;51.150;4.470;2022-10-19T12:40:51;10.77;;;5.10;;
56381;SDS011;50261;51.150;4.470;2022-10-19T12:48:19;9.27;;;4.20;;
56381;SDS011;50261;51.150;4.470;2022-10-19T13:01:04;9.75;;;4.50;;
56381;SDS011;50261;51.150;4.470;2022-10-19T13:03:32;13.48;;;4.75;;
56381;SDS011;50261;51.150;4.470;2022-10-19T13:06:00;10.00;;;4.97;;
56381;SDS011;50261;51.150;4.470;2022-10-19T13:08:27;15.20;;;4.88;;
56381;SDS011;50261;51.150;4.470;2022-10-19T13:11:04;10.75;;;4.53;;
56381;SDS011;50261;51.150;4.470;2022-10-19T13:29:24;13.23;;;5.10;;
56381;SDS011;50261;51.150;4.470;2022-10-19T13:31:50;10.38;;;5.18;;
56381;SDS011;50261;51.150;4.470;2022-10-19T13:34:16;11.27;;;5.05;;
56381;SDS011;50261;51.150;4.470;2022-10-19T13:37:01;10.02;;;4.30;;
56381;SDS011;50261;51.150;4.470;2022-10-19T13:39:27;10.75;;;4.40;;
56381;SDS011;50261;51.150;4.470;2022-10-19T13:41:53;11.02;;;5.93;;
56381;SDS011;50261;51.150;4.470;2022-10-19T13:44:22;12.30;;;4.63;;
56381;SDS011;50261;51.150;4.470;2022-10-19T13:57:48;14.50;;;4.47;;
56381;SDS011;50261;51.150;4.470;2022-10-19T13:59:55;10.85;;;4.63;;
56381;SDS011;50261;51.150;4.470;2022-10-19T14:13:00;10.05;;;4.72;;
56381;SDS011;50261;51.150;4.470;2022-10-19T14:15:28;11.45;;;4.82;;
56381;SDS011;50261;51.150;4.470;2022-10-19T14:17:54;9.02;;;4.28;;
56381;SDS011;50261;51.150;4.470;2022-10-19T14:20:30;12.80;;;4.93;;
56381;SDS011;50261;51.150;4.470;2022-10-19T14:22:57;12.27;;;5.13;;
56381;SDS011;50261;51.150;4.470;2022-10-19T14:25:26;9.32;;;5.05;;
56381;SDS011;50261;51.150;4.470;2022-10-19T14:27:58;9.52;;;4.53;;
56381;SDS011;50261;51.150;4.470;2022-10-19T14:30:29;11.05;;;4.50;;
56381;SDS011;50261;51.150;4.470;2022-10-19T14:32:56;8.15;;;4.72;;
56381;SDS011;50261;51.150;4.470;2022-10-19T14:35:25;11.68;;;4.57;;
56381;SDS011;50261;51.150;4.470;2022-10-19T14:37:51;11.32;;;4.68;;
56381;SDS011;50261;51.150;4.470;2022-10-19T14:42:46;9.25;;;4.65;;
56381;SDS011;50261;51.150;4.470;2022-10-19T14:45:19;13.73;;;5.45;;
56381;SDS011;50261;51.150;4.470;2022-10-19T14:50:11;12.50;;;4.60;;
56381;SDS011;50261;51.150;4.470;2022-10-19T14:52:36;8.77;;;4.55;;
56381;SDS011;50261;51.150;4.470;2022-10-19T14:55:05;9.82;;;4.13;;
56381;SDS011;50261;51.150;4.470;2022-10-19T14:57:33;11.25;;;4.28;;
56381;SDS011;50261;51.150;4.470;2022-10-19T15:00:00;11.13;;;4.45;;
56381;SDS011;50261;51.150;4.470;2022-10-19T15:04:53;12.10;;;5.13;;
56381;SDS011;50261;51.150;4.470;2022-10-19T15:07:22;9.52;;;5.18;;
56381;SDS011;50261;51.150;4.470;2022-10-19T15:09:50;9.93;;;5.32;;
56381;SDS011;50261;51.150;4.470;2022-10-19T15:12:18;9.90;;;4.80;;
56381;SDS011;50261;51.150;4.470;2022-10-19T15:14:45;8.15;;;4.78;;
56381;SDS011;50261;51.150;4.470;2022-10-19T15:17:22;9.43;;;5.10;;
56381;SDS011;50261;51.150;4.470;2022-10-19T15:19:48;12.05;;;5.38;;
56381;SDS011;50261;51.150;4.470;2022-10-19T15:22:15;9.82;;;4.63;;
56381;SDS011;50261;51.150;4.470;2022-10-19T15:24:58;9.55;;;4.75;;
56381;SDS011;50261;51.150;4.470;2022-10-19T15:27:29;10.63;;;4.93;;
56381;SDS011;50261;51.150;4.470;2022-10-19T15:29:55;10.38;;;4.07;;
56381;SDS011;50261;51.150;4.470;2022-10-19T15:32:22;12.00;;;4.97;;
56381;SDS011;50261;51.150;4.470;2022-10-19T15:34:48;8.90;;;4.32;;
56381;SDS011;50261;51.150;4.470;2022-10-19T15:37:18;9.27;;;5.00;;
56381;SDS011;50261;51.150;4.470;2022-10-19T15:39:45;8.98;;;4.97;;
56381;SDS011;50261;51.150;4.470;2022-10-19T15:42:21;13.50;;;4.57;;
56381;SDS011;50261;51.150;4.470;2022-10-19T15:44:47;12.48;;;5.05;;
56381;SDS011;50261;51.150;4.470;2022-10-19T15:52:18;11.35;;;4.60;;
56381;SDS011;50261;51.150;4.470;2022-10-19T15:54:48;9.82;;;4.55;;
56381;SDS011;50261;51.150;4.470;2022-10-19T15:57:30;12.10;;;5.53;;
56381;SDS011;50261;51.150;4.470;2022-10-19T15:59:57;8.73;;;4.57;;
56381;SDS011;50261;51.150;4.470;2022-10-19T16:02:23;12.65;;;5.05;;
56381;SDS011;50261;51.150;4.470;2022-10-19T16:04:49;7.75;;;4.43;;
56381;SDS011;50261;51.150;4.470;2022-10-19T16:07:16;11.85;;;4.57;;
56381;SDS011;50261;51.150;4.470;2022-10-19T16:09:43;13.20;;;4.72;;
56381;SDS011;50261;51.150;4.470;2022-10-19T16:12:09;8.65;;;4.32;;
56381;SDS011;50261;51.150;4.470;2022-10-19T16:14:35;16.60;;;4.50;;
56381;SDS011;50261;51.150;4.470;2022-10-19T16:17:02;10.82;;;4.25;;
56381;SDS011;50261;51.150;4.470;2022-10-19T16:19:28;8.55;;;4.78;;
56381;SDS011;50261;51.150;4.470;2022-10-19T16:21:54;7.22;;;4.13;;
56381;SDS011;50261;51.150;4.470;2022-10-19T16:24:19;6.82;;;4.20;;
56381;SDS011;50261;51.150;4.470;2022-10-19T16:26:45;7.43;;;4.30;;
56381;SDS011;50261;51.150;4.470;2022-10-19T16:29:11;10.48;;;4.90;;
56381;SDS011;50261;51.150;4.470;2022-10-19T16:31:36;11.32;;;4.80;;
56381;SDS011;50261;51.150;4.470;2022-10-19T16:34:02;11.40;;;4.43;;
56381;SDS011;50261;51.150;4.470;2022-10-19T16:36:28;10.50;;;4.97;;
56381;SDS011;50261;51.150;4.470;2022-10-19T16:38:54;8.98;;;4.38;;
56381;SDS011;50261;51.150;4.470;2022-10-19T16:41:20;9.93;;;5.10;;
56381;SDS011;50261;51.150;4.470;2022-10-19T16:43:46;17.30;;;6.22;;
56381;SDS011;50261;51.150;4.470;2022-10-19T16:46:12;9.00;;;5.25;;
56381;SDS011;50261;51.150;4.470;2022-10-19T16:48:38;14.18;;;6.10;;
56381;SDS011;50261;51.150;4.470;2022-10-19T16:53:30;10.65;;;6.05;;
56381;SDS011;50261;51.150;4.470;2022-10-19T16:56:02;9.95;;;6.03;;
56381;SDS011;50261;51.150;4.470;2022-10-19T16:58:28;14.52;;;6.82;;
56381;SDS011;50261;51.150;4.470;2022-10-19T17:00:54;12.73;;;6.95;;